createdAt,value
2019-02-20T00:02:06.575Z,92.29
2019-02-20T00:04:39.231Z,92.38
2019-02-20T00:07:11.895Z,92.41
2019-02-20T00:09:44.597Z,92.46
2019-02-20T00:12:17.308Z,92.57
2019-02-20T00:14:49.877Z,92.55
2019-02-20T00:17:22.581Z,92.65
2019-02-20T00:19:55.167Z,92.62
2019-02-20T00:22:27.761Z,92.56
2019-02-20T00:25:00.438Z,92.74
2019-02-20T00:27:33.120Z,92.89
2019-02-20T00:30:06.520Z,92.98
2019-02-20T00:32:39.197Z,93.00
2019-02-20T00:35:12.233Z,93.02
2019-02-20T00:37:44.933Z,92.98
2019-02-20T00:40:17.815Z,92.98
2019-02-20T00:42:50.479Z,92.88
2019-02-20T00:45:47.713Z,92.90
2019-02-20T00:48:30.994Z,92.96
2019-02-20T00:51:11.641Z,93.06
2019-02-20T00:53:56.689Z,93.09
2019-02-20T00:56:29.312Z,93.21
2019-02-20T00:59:02.043Z,93.31
2019-02-20T01:01:34.642Z,93.36
2019-02-20T01:04:07.323Z,93.42
2019-02-20T01:06:40.121Z,93.42
2019-02-20T01:09:12.740Z,93.34
2019-02-20T01:11:45.370Z,93.26
2019-02-20T01:14:18.062Z,93.24
2019-02-20T01:16:50.610Z,93.20
2019-02-20T01:19:23.299Z,93.21
2019-02-20T01:21:55.969Z,93.32
2019-02-20T01:24:28.856Z,93.44
2019-02-20T01:27:01.416Z,93.50
2019-02-20T01:29:34.037Z,93.56
2019-02-20T01:32:06.620Z,93.47
2019-02-20T01:34:39.309Z,93.40
2019-02-20T01:37:11.962Z,93.31
2019-02-20T01:39:44.775Z,93.43
2019-02-20T01:42:17.389Z,93.58
2019-02-20T01:44:50.010Z,93.65
2019-02-20T01:47:22.640Z,93.64
2019-02-20T01:49:55.251Z,93.69
2019-02-20T01:52:27.911Z,93.77
2019-02-20T01:55:00.618Z,93.81
2019-02-20T01:57:33.267Z,93.81
2019-02-20T02:00:08.210Z,93.82
2019-02-20T02:02:40.930Z,93.79
2019-02-20T02:05:15.769Z,93.75
2019-02-20T02:07:48.094Z,93.74
2019-02-20T02:10:20.710Z,93.73
2019-02-20T02:12:53.392Z,93.76
2019-02-20T02:15:26.000Z,93.79
2019-02-20T02:17:58.628Z,93.76
2019-02-20T02:20:31.310Z,93.82
2019-02-20T02:23:03.222Z,93.89
2019-02-20T02:25:35.812Z,93.91
2019-02-20T02:28:08.461Z,93.87
2019-02-20T02:30:41.292Z,93.89
2019-02-20T02:33:13.986Z,93.87
2019-02-20T02:35:46.619Z,93.81
2019-02-20T02:38:19.282Z,93.79
2019-02-20T02:40:51.909Z,93.80
2019-02-20T02:43:24.483Z,93.83
2019-02-20T02:45:57.433Z,93.81
2019-02-20T02:48:30.129Z,93.84
2019-02-20T02:51:02.806Z,93.85
2019-02-20T02:53:35.492Z,93.83
2019-02-20T02:56:08.240Z,93.86
2019-02-20T02:58:40.952Z,93.93
2019-02-20T03:01:13.618Z,93.97
2019-02-20T03:03:46.200Z,94.03
2019-02-20T03:06:18.853Z,94.07
2019-02-20T03:08:51.528Z,94.10
2019-02-20T03:11:24.260Z,94.08
2019-02-20T03:13:56.847Z,94.04
2019-02-20T03:16:29.542Z,93.94
2019-02-20T03:19:02.248Z,93.91
2019-02-20T03:21:34.900Z,93.95
2019-02-20T03:24:07.495Z,94.00
2019-02-20T03:26:40.170Z,94.12
2019-02-20T03:29:12.766Z,93.97
2019-02-20T03:31:45.369Z,93.95
2019-02-20T03:34:18.018Z,94.03
2019-02-20T03:36:50.653Z,94.04
2019-02-20T03:39:23.396Z,93.89
2019-02-20T03:41:56.113Z,93.88
2019-02-20T03:44:28.686Z,93.87
2019-02-20T03:47:01.334Z,93.92
2019-02-20T03:49:33.965Z,93.95
2019-02-20T03:52:06.633Z,93.97
2019-02-20T03:54:39.302Z,93.99
2019-02-20T03:57:11.958Z,94.07
2019-02-20T03:59:44.641Z,94.14
2019-02-20T04:02:17.278Z,94.14
2019-02-20T04:04:49.843Z,94.17
2019-02-20T04:07:22.625Z,94.18
2019-02-20T04:09:55.335Z,94.18
2019-02-20T04:12:27.958Z,94.19
2019-02-20T04:15:00.626Z,94.23
2019-02-20T04:17:33.347Z,94.22
2019-02-20T04:20:06.949Z,94.26
2019-02-20T04:22:39.648Z,94.28
2019-02-20T04:25:12.224Z,94.33
2019-02-20T04:27:45.005Z,94.37
2019-02-20T04:30:17.706Z,94.41
2019-02-20T04:32:50.308Z,94.40
2019-02-20T04:35:22.870Z,94.35
2019-02-20T04:37:55.554Z,94.32
2019-02-20T04:40:28.791Z,94.31
2019-02-20T04:43:01.485Z,94.36
2019-02-20T04:45:34.174Z,94.35
2019-02-20T04:48:06.936Z,94.44
2019-02-20T04:50:39.596Z,94.41
2019-02-20T04:53:12.314Z,94.41
2019-02-20T04:55:44.283Z,94.41
2019-02-20T04:58:21.797Z,94.39
2019-02-20T05:00:54.370Z,94.35
2019-02-20T05:03:27.168Z,94.35
2019-02-20T05:05:59.840Z,94.36
2019-02-20T05:08:32.450Z,94.39
2019-02-20T05:11:05.073Z,94.42
2019-02-20T05:13:37.704Z,94.38
2019-02-20T05:16:10.383Z,94.32
2019-02-20T05:18:43.090Z,94.36
2019-02-20T05:21:15.668Z,94.44
2019-02-20T05:23:48.316Z,94.45
2019-02-20T05:26:21.023Z,94.46
2019-02-20T05:28:53.658Z,94.45
2019-02-20T05:31:26.271Z,94.41
2019-02-20T05:33:58.966Z,94.36
2019-02-20T05:36:31.562Z,94.37
2019-02-20T05:39:05.000Z,94.43
2019-02-20T05:41:37.651Z,94.45
2019-02-20T05:44:10.394Z,94.46
2019-02-20T05:46:43.041Z,94.52
2019-02-20T05:49:15.812Z,94.57
2019-02-20T05:51:48.604Z,94.58
2019-02-20T05:54:21.199Z,94.56
2019-02-20T05:56:53.789Z,94.53
2019-02-20T05:59:26.447Z,94.53
2019-02-20T06:01:59.101Z,94.55
2019-02-20T06:04:31.772Z,94.59
2019-02-20T06:07:04.472Z,94.57
2019-02-20T06:09:37.113Z,94.58
2019-02-20T06:12:09.740Z,94.55
2019-02-20T06:14:42.527Z,94.56
2019-02-20T06:17:15.212Z,94.57
2019-02-20T06:19:47.866Z,94.54
2019-02-20T06:22:20.508Z,94.51
2019-02-20T06:24:54.510Z,94.49
2019-02-20T06:27:27.158Z,94.49
2019-02-20T06:29:59.754Z,94.60
2019-02-20T06:32:32.560Z,94.68
2019-02-20T06:35:05.466Z,94.68
2019-02-20T06:37:38.127Z,94.71
2019-02-20T06:40:10.844Z,94.66
2019-02-20T06:42:43.469Z,94.65
2019-02-20T06:45:16.220Z,94.67
2019-02-20T06:47:48.814Z,94.70
2019-02-20T06:50:21.505Z,94.69
2019-02-20T06:52:54.069Z,94.72
2019-02-20T06:55:26.716Z,94.71
2019-02-20T06:57:59.363Z,94.74
2019-02-20T07:00:32.201Z,94.76
2019-02-20T07:03:04.754Z,94.75
2019-02-20T07:05:43.105Z,94.75
2019-02-20T07:09:24.964Z,94.75
2019-02-20T07:12:40.738Z,94.74
2019-02-20T07:15:50.475Z,94.74
2019-02-20T07:19:53.085Z,94.75
2019-02-20T07:23:22.035Z,94.75
2019-02-20T07:27:14.182Z,94.72
2019-02-20T07:29:45.266Z,94.71
2019-02-20T07:32:19.087Z,94.83
2019-02-20T07:34:51.772Z,94.84
2019-02-20T07:37:24.377Z,94.85
2019-02-20T07:39:57.479Z,94.87
2019-02-20T07:42:30.274Z,94.87
2019-02-20T07:45:03.041Z,94.87
2019-02-20T07:47:35.699Z,94.85
2019-02-20T07:50:10.324Z,94.89
2019-02-20T07:52:42.882Z,94.91
2019-02-20T07:55:15.714Z,94.87
2019-02-20T07:57:48.491Z,94.86
2019-02-20T08:00:21.332Z,94.94
2019-02-20T08:02:53.982Z,94.88
2019-02-20T08:05:26.650Z,94.90
2019-02-20T08:07:59.295Z,94.85
2019-02-20T08:10:31.941Z,95.25
2019-02-20T08:13:04.707Z,95.08
2019-02-20T08:15:37.672Z,94.06
2019-02-20T08:18:10.312Z,92.02
2019-02-20T08:20:42.958Z,87.96
2019-02-20T08:23:15.650Z,83.29
2019-02-20T08:25:48.284Z,84.85
2019-02-20T08:28:21.032Z,81.57
2019-02-20T08:30:53.714Z,78.57
2019-02-20T08:33:28.553Z,78.07
2019-02-20T08:36:03.993Z,73.71
2019-02-20T08:38:36.712Z,67.66
2019-02-20T08:41:09.307Z,65.13
2019-02-20T08:43:42.010Z,65.11
2019-02-20T08:46:14.695Z,65.27
2019-02-20T08:48:47.478Z,64.41
2019-02-20T08:51:20.233Z,66.83
2019-02-20T08:53:52.934Z,65.23
2019-02-20T08:56:25.565Z,62.75
2019-02-20T08:58:57.751Z,65.49
2019-02-20T09:01:30.338Z,62.68
2019-02-20T09:04:03.161Z,64.48
2019-02-20T09:06:35.972Z,62.15
2019-02-20T09:09:08.610Z,59.50
2019-02-20T09:11:41.269Z,58.37
2019-02-20T09:14:14.010Z,60.02
2019-02-20T09:16:46.633Z,60.72
2019-02-20T09:19:19.332Z,57.62
2019-02-20T09:21:51.983Z,55.79
2019-02-20T09:24:24.622Z,55.95
2019-02-20T09:26:57.406Z,57.32
2019-02-20T09:29:30.365Z,55.34
2019-02-20T09:32:03.553Z,57.29
2019-02-20T09:34:36.144Z,57.84
2019-02-20T09:37:08.880Z,56.78
2019-02-20T09:39:43.194Z,54.02
2019-02-20T09:42:21.304Z,53.73
2019-02-20T09:47:38.810Z,53.81
2019-02-20T09:50:11.600Z,56.09
2019-02-20T09:52:51.973Z,55.42
2019-02-20T09:55:18.656Z,55.56
2019-02-20T09:57:51.291Z,54.49
2019-02-20T10:00:23.976Z,53.56
2019-02-20T10:02:56.637Z,54.29
2019-02-20T10:05:29.327Z,52.86
2019-02-20T10:08:02.127Z,52.66
2019-02-20T10:10:34.877Z,50.41
2019-02-20T10:13:09.544Z,47.99
2019-02-20T10:15:42.065Z,48.75
2019-02-20T10:18:14.941Z,50.65
2019-02-20T10:20:47.727Z,51.52
2019-02-20T10:23:20.402Z,47.91
2019-02-20T10:26:00.552Z,48.26
2019-02-20T10:28:27.501Z,48.14
2019-02-20T10:31:00.246Z,48.66
2019-02-20T10:33:33.002Z,48.89
2019-02-20T10:36:05.675Z,47.45
2019-02-20T10:38:38.759Z,48.07
2019-02-20T10:41:10.587Z,45.45
2019-02-20T10:43:43.474Z,46.56
2019-02-20T10:46:16.193Z,47.48
2019-02-20T10:48:48.219Z,46.04
2019-02-20T10:51:20.850Z,46.26
2019-02-20T10:53:53.588Z,47.97
2019-02-20T10:56:26.324Z,47.13
2019-02-20T10:58:59.089Z,47.01
2019-02-20T11:01:31.779Z,46.22
2019-02-20T11:04:04.543Z,43.86
2019-02-20T11:06:37.300Z,47.24
2019-02-20T11:09:10.177Z,45.80
2019-02-20T11:11:42.927Z,45.78
2019-02-20T11:14:15.641Z,46.91
2019-02-20T11:16:47.839Z,45.97
2019-02-20T11:19:20.603Z,43.99
2019-02-20T11:21:53.427Z,46.58
2019-02-20T11:24:26.158Z,45.34
2019-02-20T11:26:58.874Z,44.97
2019-02-20T11:29:31.559Z,43.68
2019-02-20T11:32:04.306Z,42.37
2019-02-20T11:34:36.966Z,44.60
2019-02-20T11:37:09.638Z,40.24
2019-02-20T11:39:42.344Z,39.97
2019-02-20T11:42:15.192Z,42.38
2019-02-20T11:44:47.912Z,38.72
2019-02-20T11:47:20.570Z,40.47
2019-02-20T11:49:53.295Z,41.06
2019-02-20T11:52:25.963Z,40.12
2019-02-20T11:54:58.839Z,39.34
2019-02-20T11:57:31.497Z,38.50
2019-02-20T12:00:04.910Z,39.47
2019-02-20T12:02:42.164Z,39.63
2019-02-20T12:05:12.188Z,38.21
2019-02-20T12:07:44.913Z,38.34
2019-02-20T12:10:18.653Z,37.68
2019-02-20T12:12:51.548Z,38.42
2019-02-20T12:15:26.737Z,36.70
2019-02-20T12:17:59.474Z,36.61
2019-02-20T12:20:32.441Z,38.28
2019-02-20T12:23:05.133Z,37.69
2019-02-20T12:25:37.789Z,38.59
2019-02-20T12:28:10.579Z,40.44
2019-02-20T12:30:43.376Z,39.19
2019-02-20T12:33:16.552Z,38.86
2019-02-20T12:35:48.505Z,38.18
2019-02-20T12:38:21.408Z,40.04
2019-02-20T12:40:54.135Z,38.33
2019-02-20T12:43:26.932Z,37.04
2019-02-20T12:45:59.897Z,37.62
2019-02-20T12:48:32.710Z,39.49
2019-02-20T12:51:05.456Z,38.46
2019-02-20T12:53:38.216Z,38.19
2019-02-20T12:56:11.126Z,37.96
2019-02-20T12:58:43.871Z,37.54
2019-02-20T13:01:16.789Z,38.40
2019-02-20T13:03:50.798Z,37.40
2019-02-20T13:06:23.650Z,37.78
2019-02-20T13:08:56.346Z,37.82
2019-02-20T13:11:29.046Z,35.87
2019-02-20T13:14:01.833Z,35.86
2019-02-20T13:16:34.645Z,39.37
2019-02-20T13:19:07.558Z,39.13
2019-02-20T13:21:40.358Z,36.57
2019-02-20T13:24:13.121Z,37.99
2019-02-20T13:26:52.878Z,37.87
2019-02-20T13:29:20.293Z,37.00
2019-02-20T13:31:53.057Z,35.30
2019-02-20T13:34:25.730Z,35.68
2019-02-20T13:36:58.490Z,37.29
2019-02-20T13:39:31.135Z,37.27
2019-02-20T13:42:03.795Z,39.09
2019-02-20T13:44:36.541Z,36.77
2019-02-20T13:47:09.426Z,37.71
2019-02-20T13:49:42.060Z,38.47
2019-02-20T13:52:14.838Z,39.56
2019-02-20T13:54:47.476Z,39.66
2019-02-20T13:57:20.762Z,39.79
2019-02-20T13:59:53.453Z,38.82
2019-02-20T14:02:26.171Z,41.35
2019-02-20T14:04:58.881Z,41.87
2019-02-20T14:07:31.633Z,41.19
2019-02-20T14:10:05.043Z,41.47
2019-02-20T14:12:37.731Z,44.24
2019-02-20T14:15:11.689Z,45.00
2019-02-20T14:17:44.498Z,45.40
2019-02-20T14:20:17.332Z,44.88
2019-02-20T14:22:50.057Z,47.30
2019-02-20T14:25:22.798Z,48.49
2019-02-20T14:27:55.592Z,49.71
2019-02-20T14:30:28.353Z,50.83
2019-02-20T14:33:01.287Z,52.80
2019-02-20T14:35:34.057Z,52.33
2019-02-20T14:38:06.914Z,53.11
2019-02-20T14:40:42.075Z,54.18
2019-02-20T14:43:15.137Z,55.20
2019-02-20T14:45:48.259Z,55.44
2019-02-20T14:48:20.856Z,56.33
2019-02-20T14:50:53.607Z,55.73
2019-02-20T14:53:27.124Z,55.15
2019-02-20T14:55:59.864Z,55.49
2019-02-20T14:58:32.506Z,55.25
2019-02-20T15:01:06.124Z,55.14
2019-02-20T15:03:38.822Z,55.33
2019-02-20T15:06:11.486Z,55.53
2019-02-20T15:08:44.247Z,58.03
2019-02-20T15:11:16.887Z,56.75
2019-02-20T15:13:49.527Z,56.28
2019-02-20T15:16:22.160Z,56.93
2019-02-20T15:18:54.982Z,55.62
2019-02-20T15:21:28.040Z,55.26
2019-02-20T15:24:02.488Z,56.12
2019-02-20T15:26:35.221Z,57.56
2019-02-20T15:29:07.960Z,58.32
2019-02-20T15:31:40.656Z,60.15
2019-02-20T15:34:13.424Z,60.23
2019-02-20T15:36:46.010Z,60.39
2019-02-20T15:39:18.586Z,61.17
2019-02-20T15:41:51.360Z,61.58
2019-02-20T15:44:23.937Z,61.80
2019-02-20T15:46:56.718Z,61.95
2019-02-20T15:49:29.292Z,62.78
2019-02-20T15:52:02.011Z,63.31
2019-02-20T15:54:34.721Z,63.45
2019-02-20T15:57:07.459Z,63.53
2019-02-20T15:59:40.242Z,63.72
2019-02-20T16:02:12.905Z,63.27
2019-02-20T16:04:45.617Z,62.75
2019-02-20T16:07:18.377Z,62.77
2019-02-20T16:09:51.472Z,63.17
2019-02-20T16:12:24.130Z,63.19
2019-02-20T16:14:58.576Z,63.55
2019-02-20T16:17:31.249Z,64.29
2019-02-20T16:20:03.898Z,64.32
2019-02-20T16:22:36.912Z,64.41
2019-02-20T16:25:12.159Z,64.81
2019-02-20T16:27:47.472Z,65.43
2019-02-20T16:30:19.363Z,65.74
2019-02-20T16:32:52.011Z,66.81
2019-02-20T16:35:24.720Z,67.89
2019-02-20T16:37:57.439Z,68.79
2019-02-20T16:40:30.067Z,68.84
2019-02-20T16:43:03.847Z,69.59
2019-02-20T16:45:36.815Z,70.23
2019-02-20T16:48:09.506Z,70.73
2019-02-20T16:50:42.161Z,71.06
2019-02-20T16:53:14.798Z,71.81
2019-02-20T16:55:47.425Z,72.40
2019-02-20T16:58:20.560Z,73.31
2019-02-20T17:00:54.353Z,74.52
2019-02-20T17:03:27.148Z,75.37
2019-02-20T17:05:59.839Z,75.47
2019-02-20T17:08:32.458Z,76.10
2019-02-20T17:11:05.030Z,76.82
2019-02-20T17:13:39.519Z,77.21
2019-02-20T17:16:12.196Z,77.89
2019-02-20T17:18:44.865Z,78.58
2019-02-20T17:21:18.336Z,79.18
2019-02-20T17:23:51.124Z,79.64
2019-02-20T17:26:23.782Z,79.92
2019-02-20T17:28:56.772Z,80.32
2019-02-20T17:31:29.487Z,81.09
2019-02-20T17:34:02.449Z,81.63
2019-02-20T17:36:35.078Z,82.13
2019-02-20T17:39:08.616Z,82.47
2019-02-20T17:41:41.252Z,83.03
2019-02-20T17:44:13.910Z,83.44
2019-02-20T17:46:46.568Z,83.88
2019-02-20T17:49:19.298Z,84.08
2019-02-20T17:51:51.877Z,84.03
2019-02-20T17:54:24.593Z,84.24
2019-02-20T17:56:57.713Z,84.01
2019-02-20T17:59:30.366Z,84.27
2019-02-20T18:02:03.157Z,84.64
2019-02-20T18:04:36.066Z,84.68
2019-02-20T18:07:08.868Z,84.91
2019-02-20T18:09:41.417Z,85.39
2019-02-20T18:12:14.100Z,85.80
2019-02-20T18:14:46.709Z,86.15
2019-02-20T18:17:19.375Z,86.42
2019-02-20T18:19:51.978Z,86.41
2019-02-20T18:22:24.728Z,85.85
2019-02-20T18:24:57.375Z,86.07
2019-02-20T18:27:30.140Z,86.74
2019-02-20T18:30:02.830Z,87.11
2019-02-20T18:32:37.216Z,87.30
2019-02-20T18:35:11.160Z,87.33
2019-02-20T18:37:43.746Z,87.66
2019-02-20T18:40:17.168Z,87.88
2019-02-20T18:42:49.756Z,88.01
2019-02-20T18:45:22.807Z,88.23
2019-02-20T18:47:55.913Z,88.36
2019-02-20T18:50:28.549Z,88.32
2019-02-20T18:53:01.189Z,88.08
2019-02-20T18:55:33.821Z,88.30
2019-02-20T18:58:06.681Z,88.11
2019-02-20T19:00:39.339Z,88.21
2019-02-20T19:03:11.912Z,88.44
2019-02-20T19:05:44.675Z,88.31
2019-02-20T19:08:43.118Z,87.91
2019-02-20T19:12:01.603Z,88.00
2019-02-20T19:15:13.316Z,88.74
2019-02-20T19:18:41.536Z,89.26
2019-02-20T19:22:21.799Z,89.47
2019-02-20T19:26:03.207Z,89.58
2019-02-20T19:29:07.343Z,89.42
2019-02-20T19:32:51.648Z,89.86
2019-02-20T19:36:05.155Z,90.02
2019-02-20T19:39:04.775Z,90.16
2019-02-20T19:42:19.316Z,90.21
2019-02-20T19:45:34.680Z,90.20
2019-02-20T19:49:19.583Z,90.47
2019-02-20T19:52:50.031Z,90.69
2019-02-20T19:56:07.688Z,90.06
2019-02-20T19:59:29.155Z,90.04
2019-02-20T20:02:45.078Z,90.06
2019-02-20T20:06:15.432Z,90.28
2019-02-20T20:10:09.814Z,90.68
2019-02-20T20:13:35.606Z,90.94
2019-02-20T20:16:30.680Z,91.08
2019-02-20T20:19:45.989Z,91.32
2019-02-20T20:23:15.879Z,91.17
2019-02-20T20:26:33.637Z,91.20
2019-02-20T20:30:05.064Z,91.27
2019-02-20T20:33:33.250Z,91.46
2019-02-20T20:36:53.074Z,91.59
2019-02-20T20:40:43.781Z,91.44
2019-02-20T20:43:58.354Z,91.27
2019-02-20T20:47:08.204Z,91.70
2019-02-20T20:50:45.617Z,91.57
2019-02-20T20:54:26.417Z,91.85
2019-02-20T20:57:28.310Z,91.89
2019-02-20T21:00:45.599Z,91.85
2019-02-20T21:03:19.174Z,91.78
2019-02-20T21:06:39.854Z,91.68
2019-02-20T21:10:07.815Z,91.62
2019-02-20T21:13:34.794Z,91.76
2019-02-20T21:17:21.201Z,91.92
2019-02-20T21:20:54.110Z,92.12
2019-02-20T21:24:23.160Z,92.30
2019-02-20T21:27:51.360Z,91.86
2019-02-20T21:31:22.001Z,92.06
2019-02-20T21:34:59.628Z,92.35
2019-02-20T21:38:36.770Z,92.40
2019-02-20T21:41:57.282Z,92.27
2019-02-20T21:45:25.327Z,92.22
2019-02-20T21:48:58.498Z,92.42
2019-02-20T21:52:11.334Z,92.52
2019-02-20T21:55:31.877Z,92.66
2019-02-20T21:58:55.863Z,92.62
2019-02-20T22:02:12.673Z,92.71
2019-02-20T22:05:48.322Z,92.76
2019-02-20T22:08:50.792Z,92.65
2019-02-20T22:12:03.195Z,92.64
2019-02-20T22:15:26.931Z,92.66
2019-02-20T22:18:42.597Z,92.65
2019-02-20T22:22:10.282Z,92.78
2019-02-20T22:25:30.185Z,92.88
2019-02-20T22:28:44.258Z,92.98
2019-02-20T22:31:50.002Z,93.07
2019-02-20T22:35:09.958Z,93.13
2019-02-20T22:38:08.482Z,93.26
2019-02-20T22:41:57.604Z,93.30
2019-02-20T22:45:44.180Z,93.40
2019-02-20T22:49:12.331Z,93.39
2019-02-20T22:52:26.579Z,93.56
2019-02-20T22:55:50.571Z,93.52
2019-02-20T22:58:49.982Z,93.40
2019-02-20T23:02:19.970Z,93.29
2019-02-20T23:05:41.829Z,93.39
2019-02-20T23:08:52.568Z,93.49
2019-02-20T23:12:13.047Z,93.53
2019-02-20T23:14:58.867Z,93.53
2019-02-20T23:17:31.484Z,93.58
2019-02-20T23:20:04.250Z,93.64
2019-02-20T23:22:37.016Z,93.63
2019-02-20T23:25:09.670Z,93.60
2019-02-20T23:27:42.348Z,93.59
2019-02-20T23:30:15.013Z,93.64
2019-02-20T23:32:47.533Z,93.71
2019-02-20T23:35:20.233Z,93.74
2019-02-20T23:37:52.880Z,93.71
2019-02-20T23:40:27.631Z,93.57
2019-02-20T23:42:59.884Z,93.48
2019-02-20T23:45:32.610Z,93.56
2019-02-20T23:48:05.289Z,93.66
2019-02-20T23:50:38.994Z,93.76
2019-02-20T23:53:11.627Z,93.81
2019-02-20T23:55:44.439Z,93.76
2019-02-20T23:58:17.111Z,93.70
